createdAt,value
2023-03-11T00:00:46.318Z,6.95
2023-03-11T00:03:16.640Z,6.93
2023-03-11T00:05:46.718Z,6.99
2023-03-11T00:08:17.453Z,6.88
2023-03-11T00:10:47.482Z,7.09
2023-03-11T00:13:16.323Z,7.13
2023-03-11T00:15:45.773Z,6.86
2023-03-11T00:18:13.322Z,6.87
2023-03-11T00:20:46.077Z,6.83
2023-03-11T00:23:15.845Z,6.88
2023-03-11T00:25:44.940Z,6.81
2023-03-11T00:28:14.776Z,6.78
2023-03-11T00:30:44.934Z,6.90
2023-03-11T00:33:14.520Z,6.64
2023-03-11T00:35:43.182Z,6.54
2023-03-11T00:38:15.344Z,6.58
2023-03-11T00:40:44.341Z,6.80
2023-03-11T00:43:12.208Z,6.74
2023-03-11T00:45:40.529Z,6.61
2023-03-11T00:48:09.222Z,6.66
2023-03-11T00:50:37.625Z,6.58
2023-03-11T00:53:06.181Z,6.84
2023-03-11T00:55:35.701Z,6.76
2023-03-11T00:58:05.678Z,7.03
2023-03-11T01:00:34.177Z,7.14
2023-03-11T01:03:02.169Z,7.21
2023-03-11T01:05:32.736Z,7.10
2023-03-11T01:08:00.625Z,7.10
2023-03-11T01:10:28.963Z,7.02
2023-03-11T01:12:58.083Z,6.87
2023-03-11T01:15:29.000Z,6.76
2023-03-11T01:17:56.541Z,6.92
2023-03-11T01:20:24.715Z,7.27
2023-03-11T01:22:52.402Z,7.12
2023-03-11T01:25:21.883Z,6.85
2023-03-11T01:27:49.415Z,6.83
2023-03-11T01:30:20.897Z,6.83
2023-03-11T01:32:49.213Z,7.07
2023-03-11T01:35:18.718Z,7.27
2023-03-11T01:37:46.969Z,7.28
2023-03-11T01:40:19.930Z,7.37
2023-03-11T01:42:47.472Z,7.61
2023-03-11T01:45:41.733Z,7.63
2023-03-11T01:48:11.085Z,7.40
2023-03-11T01:50:42.727Z,7.76
2023-03-11T01:53:13.244Z,7.43
2023-03-11T01:55:41.304Z,7.78
2023-03-11T01:58:14.210Z,7.84
2023-03-11T02:00:44.345Z,7.51
2023-03-11T02:03:18.846Z,7.68
2023-03-11T02:05:48.779Z,8.06
2023-03-11T02:08:16.330Z,8.11
2023-03-11T02:10:44.540Z,7.83
2023-03-11T02:13:12.493Z,7.70
2023-03-11T02:15:40.335Z,7.60
2023-03-11T02:18:12.161Z,7.53
2023-03-11T02:20:49.354Z,7.33
2023-03-11T02:23:21.221Z,7.34
2023-03-11T02:26:00.362Z,7.53
2023-03-11T02:28:34.256Z,7.74
2023-03-11T02:31:02.558Z,7.72
2023-03-11T02:33:34.534Z,7.87
2023-03-11T02:36:02.212Z,7.92
2023-03-11T02:38:29.839Z,7.58
2023-03-11T02:40:59.152Z,7.90
2023-03-11T02:43:35.008Z,7.78
2023-03-11T02:46:06.389Z,7.74
2023-03-11T02:48:36.464Z,7.82
2023-03-11T02:51:05.013Z,7.74
2023-03-11T02:53:39.358Z,7.77
2023-03-11T02:56:07.104Z,7.58
2023-03-11T02:58:36.288Z,7.40
2023-03-11T03:01:04.380Z,7.56
2023-03-11T03:03:32.333Z,7.66
2023-03-11T03:05:59.972Z,8.12
2023-03-11T03:08:27.632Z,7.66
2023-03-11T03:10:55.251Z,7.85
2023-03-11T03:13:22.852Z,7.58
2023-03-11T03:15:51.934Z,7.52
2023-03-11T03:18:19.594Z,7.54
2023-03-11T03:20:47.197Z,7.64
2023-03-11T03:23:14.855Z,7.49
2023-03-11T03:25:43.294Z,7.58
2023-03-11T03:28:11.186Z,7.85
2023-03-11T03:30:39.307Z,7.98
2023-03-11T03:33:08.792Z,7.79
2023-03-11T03:35:40.208Z,8.15
2023-03-11T03:38:08.155Z,8.02
2023-03-11T03:40:36.460Z,8.13
2023-03-11T03:43:04.809Z,8.31
2023-03-11T03:45:32.554Z,7.60
2023-03-11T03:48:00.211Z,7.83
2023-03-11T03:50:29.172Z,8.12
2023-03-11T03:52:56.853Z,8.26
2023-03-11T03:55:24.970Z,8.33
2023-03-11T03:57:52.709Z,8.20
2023-03-11T04:00:20.802Z,8.04
2023-03-11T04:02:48.447Z,8.04
2023-03-11T04:05:16.381Z,8.20
2023-03-11T04:07:45.266Z,8.48
2023-03-11T04:10:14.390Z,8.32
2023-03-11T04:12:42.057Z,7.90
2023-03-11T04:15:10.389Z,7.79
2023-03-11T04:17:38.646Z,7.80
2023-03-11T04:20:06.964Z,8.33
2023-03-11T04:22:35.063Z,8.14
2023-03-11T04:25:04.849Z,7.99
2023-03-11T04:27:32.450Z,7.73
2023-03-11T04:30:00.059Z,7.83
2023-03-11T04:32:27.700Z,7.85
2023-03-11T04:34:55.884Z,7.71
2023-03-11T04:37:28.141Z,7.86
2023-03-11T04:39:55.718Z,7.42
2023-03-11T04:42:24.769Z,7.71
2023-03-11T04:44:52.376Z,7.95
2023-03-11T04:47:20.206Z,8.14
2023-03-11T04:49:47.874Z,7.97
2023-03-11T04:52:15.495Z,7.41
2023-03-11T04:54:43.108Z,7.93
2023-03-11T04:57:10.723Z,7.76
2023-03-11T04:59:39.701Z,7.82
2023-03-11T05:02:07.377Z,7.16
2023-03-11T05:04:35.070Z,7.42
2023-03-11T05:07:02.742Z,7.69
2023-03-11T05:09:30.353Z,7.33
2023-03-11T05:11:57.870Z,7.42
2023-03-11T05:14:25.435Z,7.69
2023-03-11T05:16:54.428Z,7.21
2023-03-11T05:19:22.046Z,7.51
2023-03-11T05:21:49.651Z,6.93
2023-03-11T05:24:17.473Z,7.12
2023-03-11T05:26:48.115Z,7.34
2023-03-11T05:29:16.155Z,7.58
2023-03-11T05:31:43.795Z,7.94
2023-03-11T05:34:12.750Z,7.63
2023-03-11T05:36:40.529Z,7.61
2023-03-11T05:39:08.742Z,7.65
2023-03-11T05:41:36.665Z,8.03
2023-03-11T05:44:04.307Z,7.66
2023-03-11T05:46:31.879Z,7.63
2023-03-11T05:48:59.808Z,7.79
2023-03-11T05:51:29.003Z,7.57
2023-03-11T05:53:56.785Z,7.72
2023-03-11T05:56:24.797Z,7.93
2023-03-11T05:58:52.410Z,7.97
2023-03-11T06:01:19.995Z,7.88
2023-03-11T06:03:47.742Z,7.75
2023-03-11T06:06:15.382Z,7.56
2023-03-11T06:08:44.331Z,7.49
2023-03-11T06:11:11.974Z,7.48
2023-03-11T06:13:39.791Z,7.80
2023-03-11T06:16:08.221Z,7.65
2023-03-11T06:18:35.875Z,7.61
2023-03-11T06:21:04.255Z,6.92
2023-03-11T06:23:31.842Z,6.57
2023-03-11T06:26:03.458Z,6.38
2023-03-11T06:28:32.109Z,7.34
2023-03-11T06:31:07.481Z,7.70
2023-03-11T06:33:35.277Z,7.68
2023-03-11T06:36:05.422Z,7.28
2023-03-11T06:38:36.937Z,7.06
2023-03-11T06:41:07.359Z,6.74
2023-03-11T06:43:35.873Z,7.13
2023-03-11T06:46:08.685Z,6.96
2023-03-11T06:48:36.544Z,6.90
2023-03-11T06:51:04.696Z,6.28
2023-03-11T06:53:32.773Z,6.95
2023-03-11T06:56:02.701Z,6.95
2023-03-11T06:58:33.927Z,7.46
2023-03-11T07:01:02.060Z,7.15
2023-03-11T07:03:30.469Z,7.06
2023-03-11T07:05:59.331Z,7.64
2023-03-11T07:08:27.808Z,7.61
2023-03-11T07:11:03.736Z,7.02
2023-03-11T07:13:33.564Z,7.37
2023-03-11T07:16:03.631Z,7.70
2023-03-11T07:18:32.132Z,8.06
2023-03-11T07:21:01.771Z,8.19
2023-03-11T07:23:29.756Z,7.72
2023-03-11T07:25:57.418Z,8.02
2023-03-11T07:28:27.453Z,7.46
2023-03-11T07:30:57.028Z,6.64
2023-03-11T07:33:24.789Z,6.43
2023-03-11T07:35:52.786Z,7.26
2023-03-11T07:38:20.350Z,7.65
2023-03-11T07:40:47.873Z,7.50
2023-03-11T07:43:15.371Z,7.62
2023-03-11T07:45:42.990Z,7.77
2023-03-11T07:48:11.891Z,7.37
2023-03-11T07:50:39.610Z,7.83
2023-03-11T07:53:07.270Z,7.64
2023-03-11T07:55:34.832Z,7.38
2023-03-11T07:58:02.730Z,7.38
2023-03-11T08:00:30.612Z,7.45
2023-03-11T08:02:58.338Z,7.50
2023-03-11T08:05:27.296Z,7.51
2023-03-11T08:07:54.931Z,7.45
2023-03-11T08:10:22.587Z,7.10
2023-03-11T08:12:51.059Z,7.29
2023-03-11T08:15:18.593Z,7.46
2023-03-11T08:17:46.188Z,7.57
2023-03-11T08:20:14.012Z,7.82
2023-03-11T08:22:55.621Z,7.71
2023-03-11T08:25:25.511Z,7.59
2023-03-11T08:27:53.191Z,7.68
2023-03-11T08:30:21.231Z,7.25
2023-03-11T08:32:49.836Z,7.42
2023-03-11T08:35:17.627Z,7.39
2023-03-11T08:37:46.986Z,7.60
2023-03-11T08:40:14.695Z,8.03
2023-03-11T08:42:42.315Z,8.08
2023-03-11T08:45:11.122Z,8.07
2023-03-11T08:47:39.759Z,8.20
2023-03-11T08:50:12.342Z,8.42
2023-03-11T08:52:39.965Z,8.34
2023-03-11T08:55:13.359Z,8.60
2023-03-11T08:57:40.882Z,8.18
2023-03-11T09:00:12.697Z,7.28
2023-03-11T09:02:40.864Z,7.28
2023-03-11T09:05:09.273Z,7.16
2023-03-11T09:07:37.206Z,8.22
2023-03-11T09:10:05.819Z,7.73
2023-03-11T09:12:34.831Z,6.59
2023-03-11T09:15:02.582Z,6.75
2023-03-11T09:17:30.238Z,7.12
2023-03-11T09:19:57.774Z,7.52
2023-03-11T09:22:25.302Z,7.04
2023-03-11T09:24:52.855Z,6.49
2023-03-11T09:27:20.414Z,6.56
2023-03-11T09:29:49.332Z,7.25
2023-03-11T09:32:16.933Z,7.71
2023-03-11T09:34:44.557Z,8.16
2023-03-11T09:37:12.192Z,8.24
2023-03-11T09:39:39.880Z,8.45
2023-03-11T09:42:20.355Z,8.52
2023-03-11T09:44:59.371Z,7.52
2023-03-11T09:47:53.548Z,6.94
2023-03-11T09:50:30.198Z,6.58
2023-03-11T09:53:16.392Z,6.59
2023-03-11T09:55:46.855Z,6.43
2023-03-11T09:58:22.706Z,6.54
2023-03-11T10:00:51.927Z,7.43
2023-03-11T10:03:34.100Z,7.26
2023-03-11T10:06:15.167Z,6.33
2023-03-11T10:08:46.596Z,6.06
2023-03-11T10:11:29.414Z,6.04
2023-03-11T10:14:12.647Z,6.70
2023-03-11T10:16:56.563Z,7.60
2023-03-11T10:19:38.256Z,7.75
2023-03-11T10:22:19.231Z,7.42
2023-03-11T10:25:01.844Z,6.99
2023-03-11T10:27:37.513Z,7.36
2023-03-11T10:30:15.742Z,7.50
2023-03-11T10:32:51.624Z,7.61
2023-03-11T10:35:22.858Z,7.16
2023-03-11T10:37:57.508Z,7.06
2023-03-11T10:40:30.230Z,6.95
2023-03-11T10:43:04.201Z,7.24
2023-03-11T10:45:37.961Z,7.58
2023-03-11T10:48:11.145Z,7.65
2023-03-11T10:50:50.402Z,7.86
2023-03-11T10:53:19.892Z,8.08
2023-03-11T10:55:49.739Z,7.54
2023-03-11T10:58:20.056Z,7.25
2023-03-11T11:01:05.149Z,7.35
2023-03-11T11:03:34.644Z,7.15
2023-03-11T11:06:05.564Z,7.53
2023-03-11T11:08:34.072Z,7.24
2023-03-11T11:11:04.148Z,7.29
2023-03-11T11:13:33.600Z,7.00
2023-03-11T11:16:03.390Z,6.92
2023-03-11T11:18:36.777Z,7.21
2023-03-11T11:21:07.886Z,6.80
2023-03-11T11:23:42.972Z,6.57
2023-03-11T11:26:17.628Z,6.76
2023-03-11T11:28:45.405Z,6.97
2023-03-11T11:31:24.805Z,7.88
2023-03-11T11:33:56.062Z,7.37
2023-03-11T11:36:29.869Z,6.87
2023-03-11T11:39:00.867Z,7.43
2023-03-11T11:41:32.971Z,6.61
2023-03-11T11:44:04.625Z,6.65
2023-03-11T11:46:40.358Z,6.95
2023-03-11T11:49:19.152Z,6.64
2023-03-11T11:51:54.865Z,6.93
2023-03-11T11:54:30.999Z,7.28
2023-03-11T11:57:00.314Z,7.56
2023-03-11T11:59:29.335Z,7.41
2023-03-11T12:02:12.949Z,8.28
2023-03-11T12:04:58.553Z,8.38
2023-03-11T12:07:44.082Z,8.85
2023-03-11T12:10:26.110Z,8.99
2023-03-11T12:13:20.139Z,9.18
2023-03-11T12:15:55.337Z,8.69
2023-03-11T12:18:32.676Z,9.33
2023-03-11T12:21:20.704Z,9.22
2023-03-11T12:24:03.102Z,8.51
2023-03-11T12:26:37.938Z,9.21
2023-03-11T12:29:18.867Z,9.84
2023-03-11T12:31:48.208Z,7.67
2023-03-11T12:34:20.709Z,7.30
2023-03-11T12:36:52.478Z,6.94
2023-03-11T12:39:24.002Z,6.78
2023-03-11T12:42:16.753Z,6.63
2023-03-11T12:44:45.814Z,6.54
2023-03-11T12:47:22.890Z,6.56
2023-03-11T12:49:52.745Z,6.44
2023-03-11T12:52:24.681Z,6.54
2023-03-11T12:55:36.739Z,7.06
2023-03-11T12:58:30.248Z,7.24
2023-03-11T13:01:12.279Z,7.22
2023-03-11T13:03:55.066Z,7.94
2023-03-11T13:07:02.748Z,7.99
2023-03-11T13:09:32.034Z,7.88
2023-03-11T13:11:59.739Z,7.73
2023-03-11T13:14:30.615Z,7.81
2023-03-11T13:17:25.490Z,7.76
2023-03-11T13:19:55.413Z,7.28
2023-03-11T13:23:14.895Z,6.63
2023-03-11T13:26:18.308Z,6.38
2023-03-11T13:29:13.000Z,6.71
2023-03-11T13:32:01.188Z,6.82
2023-03-11T13:34:42.845Z,6.70
2023-03-11T13:37:25.674Z,6.57
2023-03-11T13:40:06.086Z,6.36
2023-03-11T13:42:42.481Z,6.24
2023-03-11T13:45:25.853Z,6.29
2023-03-11T13:47:59.897Z,6.44
2023-03-11T13:50:34.215Z,6.47
2023-03-11T13:53:09.076Z,6.49
2023-03-11T13:55:42.951Z,6.97
2023-03-11T13:58:22.215Z,7.65
2023-03-11T14:00:52.896Z,7.96
2023-03-11T14:03:22.906Z,7.51
2023-03-11T14:05:57.848Z,6.78
2023-03-11T14:08:28.632Z,6.65
2023-03-11T14:10:58.035Z,6.77
2023-03-11T14:13:28.992Z,7.06
2023-03-11T14:16:05.906Z,7.75
2023-03-11T14:18:36.524Z,7.47
2023-03-11T14:21:07.043Z,7.56
2023-03-11T14:23:39.621Z,7.52
2023-03-11T14:26:12.672Z,7.97
2023-03-11T14:28:46.161Z,7.57
2023-03-11T14:31:29.462Z,7.11
2023-03-11T14:34:00.378Z,6.62
2023-03-11T14:36:28.261Z,6.44
2023-03-11T14:38:55.866Z,6.69
2023-03-11T14:41:23.830Z,7.27
2023-03-11T14:43:54.705Z,7.40
2023-03-11T14:46:28.137Z,7.76
2023-03-11T14:48:59.859Z,7.92
2023-03-11T14:51:34.341Z,7.52
2023-03-11T14:54:14.376Z,7.47
2023-03-11T14:56:49.504Z,6.81
2023-03-11T14:59:23.845Z,6.54
2023-03-11T15:01:53.693Z,6.70
2023-03-11T15:04:30.580Z,7.53
2023-03-11T15:06:59.946Z,6.91
2023-03-11T15:09:29.664Z,7.16
2023-03-11T15:11:59.679Z,7.21
2023-03-11T15:14:30.378Z,6.81
2023-03-11T15:17:33.612Z,6.46
2023-03-11T15:20:02.652Z,6.37
2023-03-11T15:22:36.239Z,6.47
2023-03-11T15:25:15.752Z,6.29
2023-03-11T15:27:43.565Z,6.44
2023-03-11T15:30:21.250Z,6.76
2023-03-11T15:32:49.330Z,6.77
2023-03-11T15:35:19.582Z,7.74
2023-03-11T15:37:49.472Z,7.89
2023-03-11T15:40:30.022Z,8.09
2023-03-11T15:43:26.554Z,7.92
2023-03-11T15:45:58.444Z,8.29
2023-03-11T15:48:26.393Z,7.70
2023-03-11T15:50:56.477Z,7.69
2023-03-11T15:53:26.387Z,7.82
2023-03-11T15:56:06.242Z,8.03
2023-03-11T15:58:36.863Z,8.29
2023-03-11T16:01:05.966Z,8.18
2023-03-11T16:03:33.688Z,7.16
2023-03-11T16:06:01.299Z,7.61
2023-03-11T16:08:28.951Z,7.21
2023-03-11T16:10:56.580Z,7.00
2023-03-11T16:13:24.428Z,6.77
2023-03-11T16:15:53.166Z,7.81
2023-03-11T16:18:22.159Z,7.89
2023-03-11T16:20:53.004Z,7.33
2023-03-11T16:23:25.000Z,8.25
2023-03-11T16:25:58.779Z,7.85
2023-03-11T16:28:26.992Z,8.34
2023-03-11T16:30:54.768Z,7.74
2023-03-11T16:33:23.782Z,8.08
2023-03-11T16:35:51.405Z,7.01
2023-03-11T16:38:19.109Z,7.56
2023-03-11T16:40:56.714Z,7.65
2023-03-11T16:43:24.721Z,7.63
2023-03-11T16:45:52.384Z,8.14
2023-03-11T16:48:20.050Z,7.14
2023-03-11T16:50:49.642Z,6.66
2023-03-11T16:53:17.779Z,6.58
2023-03-11T16:55:46.308Z,6.50
2023-03-11T16:58:14.116Z,7.45
2023-03-11T17:00:41.977Z,6.89
2023-03-11T17:03:12.626Z,6.67
2023-03-11T17:05:40.553Z,6.82
2023-03-11T17:08:10.198Z,6.81
2023-03-11T17:10:39.548Z,6.56
2023-03-11T17:13:07.586Z,7.30
2023-03-11T17:15:35.263Z,6.79
2023-03-11T17:18:03.427Z,7.04
2023-03-11T17:20:31.428Z,6.69
2023-03-11T17:23:00.130Z,7.58
2023-03-11T17:25:29.206Z,7.01
2023-03-11T17:27:57.440Z,7.57
2023-03-11T17:30:36.446Z,6.83
2023-03-11T17:33:04.939Z,6.88
2023-03-11T17:35:32.768Z,7.83
2023-03-11T17:38:00.456Z,7.20
2023-03-11T17:40:29.546Z,8.09
2023-03-11T17:42:57.163Z,8.29
2023-03-11T17:45:25.173Z,8.44
2023-03-11T17:47:52.810Z,8.51
2023-03-11T17:50:20.414Z,8.23
2023-03-11T17:52:48.082Z,8.36
2023-03-11T17:55:16.074Z,8.58
2023-03-11T17:57:46.038Z,8.14
2023-03-11T18:00:15.241Z,8.00
2023-03-11T18:02:42.928Z,8.11
2023-03-11T18:05:10.801Z,7.86
2023-03-11T18:07:39.184Z,8.33
2023-03-11T18:10:09.490Z,8.42
2023-03-11T18:12:38.180Z,8.76
2023-03-11T18:15:08.647Z,8.59
2023-03-11T18:17:36.293Z,8.82
2023-03-11T18:20:04.468Z,8.21
2023-03-11T18:22:35.191Z,8.48
2023-03-11T18:25:03.258Z,7.21
2023-03-11T18:27:30.864Z,7.98
2023-03-11T18:29:58.409Z,8.19
2023-03-11T18:32:27.392Z,8.50
2023-03-11T18:34:55.037Z,8.02
2023-03-11T18:37:23.246Z,8.29
2023-03-11T18:39:50.780Z,7.60
2023-03-11T18:42:18.482Z,8.03
2023-03-11T18:44:46.087Z,8.28
2023-03-11T18:47:13.717Z,7.56
2023-03-11T18:49:42.858Z,8.36
2023-03-11T18:52:10.454Z,8.48
2023-03-11T18:54:38.304Z,7.17
2023-03-11T18:57:05.934Z,7.61
2023-03-11T18:59:33.847Z,7.69
2023-03-11T19:02:01.513Z,8.22
2023-03-11T19:04:29.163Z,8.47
2023-03-11T19:06:58.233Z,8.39
2023-03-11T19:09:25.776Z,7.71
2023-03-11T19:11:53.572Z,8.30
2023-03-11T19:14:21.175Z,8.47
2023-03-11T19:16:48.872Z,8.43
2023-03-11T19:19:16.536Z,8.54
2023-03-11T19:21:44.705Z,8.61
2023-03-11T19:24:13.914Z,8.24
2023-03-11T19:26:45.431Z,7.66
2023-03-11T19:29:14.652Z,8.05
2023-03-11T19:31:42.440Z,8.61
2023-03-11T19:34:10.063Z,9.11
2023-03-11T19:36:37.938Z,8.10
2023-03-11T19:39:05.726Z,7.19
2023-03-11T19:41:35.084Z,7.15
2023-03-11T19:44:02.754Z,6.69
2023-03-11T19:46:30.464Z,6.58
2023-03-11T19:48:58.111Z,6.78
2023-03-11T19:51:38.835Z,7.84
2023-03-11T19:54:23.821Z,8.41
2023-03-11T19:56:52.841Z,8.82
2023-03-11T19:59:20.523Z,9.04
2023-03-11T20:01:48.173Z,9.29
2023-03-11T20:04:15.900Z,8.88
2023-03-11T20:06:44.016Z,9.02
2023-03-11T20:09:12.039Z,8.88
2023-03-11T20:11:40.500Z,8.34
2023-03-11T20:14:10.355Z,8.79
2023-03-11T20:16:39.028Z,8.67
2023-03-11T20:19:07.214Z,8.51
2023-03-11T20:21:34.970Z,8.67
2023-03-11T20:24:02.593Z,8.64
2023-03-11T20:26:31.422Z,8.42
2023-03-11T20:28:59.072Z,8.40
2023-03-11T20:31:28.495Z,8.66
2023-03-11T20:33:57.376Z,8.69
2023-03-11T20:36:27.868Z,8.47
2023-03-11T20:38:55.859Z,8.12
2023-03-11T20:41:25.247Z,8.39
2023-03-11T20:43:54.523Z,8.28
2023-03-11T20:46:22.756Z,8.10
2023-03-11T20:48:51.787Z,8.28
2023-03-11T20:51:20.396Z,8.50
2023-03-11T20:53:48.899Z,8.50
2023-03-11T20:56:19.328Z,7.57
2023-03-11T20:58:48.051Z,8.25
2023-03-11T21:01:19.142Z,8.13
2023-03-11T21:03:47.550Z,7.39
2023-03-11T21:06:21.028Z,6.98
2023-03-11T21:08:49.998Z,7.08
2023-03-11T21:11:18.506Z,7.07
2023-03-11T21:13:46.295Z,7.03
2023-03-11T21:16:14.119Z,7.02
2023-03-11T21:18:42.462Z,7.13
2023-03-11T21:21:10.336Z,7.96
2023-03-11T21:23:40.135Z,8.07
2023-03-11T21:26:08.285Z,7.62
2023-03-11T21:28:36.672Z,7.88
2023-03-11T21:31:06.914Z,7.73
2023-03-11T21:33:34.731Z,8.41
2023-03-11T21:36:02.959Z,7.96
2023-03-11T21:38:30.930Z,7.93
2023-03-11T21:41:07.976Z,8.27
2023-03-11T21:43:37.070Z,8.11
2023-03-11T21:46:06.254Z,7.82
2023-03-11T21:48:34.187Z,8.32
2023-03-11T21:51:02.200Z,8.70
2023-03-11T21:53:30.765Z,8.67
2023-03-11T21:55:58.933Z,8.88
2023-03-11T21:58:28.062Z,9.13
2023-03-11T22:00:56.082Z,8.79
2023-03-11T22:03:23.928Z,8.60
2023-03-11T22:05:57.111Z,8.65
2023-03-11T22:08:25.700Z,7.61
2023-03-11T22:10:53.601Z,7.01
2023-03-11T22:13:22.099Z,6.97
2023-03-11T22:15:51.676Z,7.04
2023-03-11T22:18:19.380Z,7.08
2023-03-11T22:20:47.230Z,7.82
2023-03-11T22:23:14.961Z,8.52
2023-03-11T22:25:42.721Z,8.50
2023-03-11T22:28:10.374Z,8.95
2023-03-11T22:30:38.005Z,9.15
2023-03-11T22:33:07.274Z,9.37
2023-03-11T22:35:35.022Z,9.21
2023-03-11T22:38:02.736Z,8.93
2023-03-11T22:40:30.385Z,8.35
2023-03-11T22:42:58.039Z,8.73
2023-03-11T22:45:25.883Z,9.02
2023-03-11T22:47:53.552Z,8.88
2023-03-11T22:50:22.549Z,8.77
2023-03-11T22:52:50.351Z,9.20
2023-03-11T22:55:19.651Z,9.47
2023-03-11T22:57:47.347Z,9.62
2023-03-11T23:00:20.674Z,9.08
2023-03-11T23:02:52.013Z,8.77
2023-03-11T23:05:19.838Z,8.62
2023-03-11T23:07:48.858Z,8.55
2023-03-11T23:10:21.040Z,8.74
2023-03-11T23:12:49.532Z,8.17
2023-03-11T23:15:19.340Z,7.93
2023-03-11T23:17:46.981Z,7.29
2023-03-11T23:20:15.583Z,7.55
2023-03-11T23:22:43.626Z,7.30
2023-03-11T23:25:15.314Z,8.09
2023-03-11T23:27:44.828Z,8.52
2023-03-11T23:30:14.863Z,8.29
2023-03-11T23:32:42.964Z,7.37
2023-03-11T23:35:12.016Z,7.37
2023-03-11T23:37:40.175Z,7.20
2023-03-11T23:40:09.059Z,6.95
2023-03-11T23:42:37.961Z,7.17
2023-03-11T23:45:06.881Z,7.50
2023-03-11T23:47:34.449Z,8.05
2023-03-11T23:50:02.084Z,7.26
2023-03-11T23:52:29.726Z,7.16
2023-03-11T23:54:57.459Z,7.18
2023-03-11T23:57:25.135Z,6.93
2023-03-11T23:59:54.096Z,6.78
